sensor_id;sensor_type;location;lat;lon;timestamp;P1;durP1;ratioP1;P2;durP2;ratioP2
48006;SDS011;33771;48.180;11.400;2023-12-07T00:01:10;19.40;;;14.43;;
48006;SDS011;33771;48.180;11.400;2023-12-07T00:03:36;21.47;;;14.93;;
48006;SDS011;33771;48.180;11.400;2023-12-07T00:06:01;19.77;;;14.67;;
48006;SDS011;33771;48.180;11.400;2023-12-07T00:08:28;23.73;;;15.90;;
48006;SDS011;33771;48.180;11.400;2023-12-07T00:10:54;22.73;;;16.17;;
48006;SDS011;33771;48.180;11.400;2023-12-07T00:13:20;22.73;;;16.33;;
48006;SDS011;33771;48.180;11.400;2023-12-07T00:15:46;24.60;;;16.60;;
48006;SDS011;33771;48.180;11.400;2023-12-07T00:18:11;24.63;;;16.67;;
48006;SDS011;33771;48.180;11.400;2023-12-07T00:20:37;24.00;;;16.30;;
48006;SDS011;33771;48.180;11.400;2023-12-07T00:23:03;22.77;;;16.10;;
48006;SDS011;33771;48.180;11.400;2023-12-07T00:25:28;23.03;;;15.63;;
48006;SDS011;33771;48.180;11.400;2023-12-07T00:27:54;26.40;;;17.33;;
48006;SDS011;33771;48.180;11.400;2023-12-07T00:30:19;24.57;;;17.23;;
48006;SDS011;33771;48.180;11.400;2023-12-07T00:32:45;25.00;;;16.77;;
48006;SDS011;33771;48.180;11.400;2023-12-07T00:35:11;24.33;;;16.93;;
48006;SDS011;33771;48.180;11.400;2023-12-07T00:37:38;23.67;;;16.47;;
48006;SDS011;33771;48.180;11.400;2023-12-07T00:40:03;24.90;;;17.57;;
48006;SDS011;33771;48.180;11.400;2023-12-07T00:42:29;21.83;;;15.77;;
48006;SDS011;33771;48.180;11.400;2023-12-07T00:44:55;24.87;;;16.67;;
48006;SDS011;33771;48.180;11.400;2023-12-07T00:47:21;23.47;;;17.07;;
48006;SDS011;33771;48.180;11.400;2023-12-07T00:49:47;22.47;;;15.67;;
48006;SDS011;33771;48.180;11.400;2023-12-07T00:52:12;22.97;;;16.60;;
48006;SDS011;33771;48.180;11.400;2023-12-07T00:54:38;24.67;;;17.10;;
48006;SDS011;33771;48.180;11.400;2023-12-07T00:57:06;23.60;;;16.27;;
48006;SDS011;33771;48.180;11.400;2023-12-07T00:59:31;26.20;;;17.80;;
48006;SDS011;33771;48.180;11.400;2023-12-07T01:02:07;27.27;;;16.80;;
48006;SDS011;33771;48.180;11.400;2023-12-07T01:04:33;18.15;;;12.85;;
48006;SDS011;33771;48.180;11.400;2023-12-07T01:06:58;26.20;;;16.77;;
48006;SDS011;33771;48.180;11.400;2023-12-07T01:09:24;25.63;;;17.63;;
48006;SDS011;33771;48.180;11.400;2023-12-07T01:11:50;26.33;;;17.07;;
48006;SDS011;33771;48.180;11.400;2023-12-07T01:14:17;26.63;;;17.53;;
48006;SDS011;33771;48.180;11.400;2023-12-07T01:16:43;24.37;;;17.17;;
48006;SDS011;33771;48.180;11.400;2023-12-07T01:19:09;25.27;;;18.43;;
48006;SDS011;33771;48.180;11.400;2023-12-07T01:21:35;28.27;;;19.20;;
48006;SDS011;33771;48.180;11.400;2023-12-07T01:24:00;26.97;;;18.37;;
48006;SDS011;33771;48.180;11.400;2023-12-07T01:26:26;28.23;;;17.70;;
48006;SDS011;33771;48.180;11.400;2023-12-07T01:28:51;27.87;;;18.13;;
48006;SDS011;33771;48.180;11.400;2023-12-07T01:31:17;28.50;;;19.07;;
48006;SDS011;33771;48.180;11.400;2023-12-07T01:33:43;29.83;;;19.13;;
48006;SDS011;33771;48.180;11.400;2023-12-07T01:36:09;28.33;;;18.60;;
48006;SDS011;33771;48.180;11.400;2023-12-07T01:38:35;28.43;;;18.93;;
48006;SDS011;33771;48.180;11.400;2023-12-07T01:41:00;28.77;;;19.37;;
48006;SDS011;33771;48.180;11.400;2023-12-07T01:43:26;24.37;;;17.37;;
48006;SDS011;33771;48.180;11.400;2023-12-07T01:45:51;26.10;;;17.23;;
48006;SDS011;33771;48.180;11.400;2023-12-07T01:48:21;26.00;;;17.43;;
48006;SDS011;33771;48.180;11.400;2023-12-07T01:50:48;26.23;;;17.87;;
48006;SDS011;33771;48.180;11.400;2023-12-07T01:53:14;27.30;;;17.57;;
48006;SDS011;33771;48.180;11.400;2023-12-07T01:55:41;26.53;;;18.00;;
48006;SDS011;33771;48.180;11.400;2023-12-07T01:58:07;28.30;;;19.37;;
48006;SDS011;33771;48.180;11.400;2023-12-07T02:00:33;30.17;;;19.17;;
48006;SDS011;33771;48.180;11.400;2023-12-07T02:02:59;29.77;;;19.43;;
48006;SDS011;33771;48.180;11.400;2023-12-07T02:05:25;29.73;;;20.17;;
48006;SDS011;33771;48.180;11.400;2023-12-07T02:07:51;31.73;;;19.97;;
48006;SDS011;33771;48.180;11.400;2023-12-07T02:10:17;33.50;;;20.63;;
48006;SDS011;33771;48.180;11.400;2023-12-07T02:12:44;28.77;;;19.07;;
48006;SDS011;33771;48.180;11.400;2023-12-07T02:15:10;30.53;;;20.47;;
48006;SDS011;33771;48.180;11.400;2023-12-07T02:17:50;31.67;;;19.83;;
48006;SDS011;33771;48.180;11.400;2023-12-07T02:20:26;31.27;;;20.05;;
48006;SDS011;33771;48.180;11.400;2023-12-07T02:22:56;30.17;;;19.13;;
48006;SDS011;33771;48.180;11.400;2023-12-07T02:25:29;30.57;;;19.63;;
48006;SDS011;33771;48.180;11.400;2023-12-07T02:28:06;31.83;;;19.00;;
48006;SDS011;33771;48.180;11.400;2023-12-07T02:30:32;33.10;;;19.77;;
48006;SDS011;33771;48.180;11.400;2023-12-07T02:32:58;32.47;;;20.77;;
48006;SDS011;33771;48.180;11.400;2023-12-07T02:35:23;30.30;;;19.20;;
48006;SDS011;33771;48.180;11.400;2023-12-07T02:37:50;31.43;;;19.87;;
48006;SDS011;33771;48.180;11.400;2023-12-07T02:40:17;29.47;;;19.50;;
48006;SDS011;33771;48.180;11.400;2023-12-07T02:42:45;29.47;;;19.70;;
48006;SDS011;33771;48.180;11.400;2023-12-07T02:45:12;27.93;;;19.00;;
48006;SDS011;33771;48.180;11.400;2023-12-07T02:47:38;33.90;;;21.50;;
48006;SDS011;33771;48.180;11.400;2023-12-07T02:50:04;34.47;;;22.37;;
48006;SDS011;33771;48.180;11.400;2023-12-07T02:52:32;31.67;;;20.37;;
48006;SDS011;33771;48.180;11.400;2023-12-07T02:54:58;33.53;;;20.83;;
48006;SDS011;33771;48.180;11.400;2023-12-07T02:57:23;33.03;;;20.33;;
48006;SDS011;33771;48.180;11.400;2023-12-07T02:59:49;34.00;;;20.90;;
48006;SDS011;33771;48.180;11.400;2023-12-07T03:02:14;32.30;;;20.73;;
48006;SDS011;33771;48.180;11.400;2023-12-07T03:04:40;31.43;;;20.23;;
48006;SDS011;33771;48.180;11.400;2023-12-07T03:07:05;33.43;;;20.97;;
48006;SDS011;33771;48.180;11.400;2023-12-07T03:09:31;35.27;;;21.20;;
48006;SDS011;33771;48.180;11.400;2023-12-07T03:11:56;34.57;;;21.80;;
48006;SDS011;33771;48.180;11.400;2023-12-07T03:14:22;37.80;;;22.07;;
48006;SDS011;33771;48.180;11.400;2023-12-07T03:16:48;34.23;;;21.00;;
48006;SDS011;33771;48.180;11.400;2023-12-07T03:19:13;33.27;;;20.13;;
48006;SDS011;33771;48.180;11.400;2023-12-07T03:21:39;34.87;;;21.40;;
48006;SDS011;33771;48.180;11.400;2023-12-07T03:24:06;32.80;;;20.40;;
48006;SDS011;33771;48.180;11.400;2023-12-07T03:26:33;31.23;;;20.30;;
48006;SDS011;33771;48.180;11.400;2023-12-07T03:28:58;33.13;;;19.50;;
48006;SDS011;33771;48.180;11.400;2023-12-07T03:31:24;31.70;;;20.43;;
48006;SDS011;33771;48.180;11.400;2023-12-07T03:33:49;32.87;;;20.23;;
48006;SDS011;33771;48.180;11.400;2023-12-07T03:36:15;30.90;;;20.43;;
48006;SDS011;33771;48.180;11.400;2023-12-07T03:38:41;31.47;;;20.10;;
48006;SDS011;33771;48.180;11.400;2023-12-07T03:41:07;32.63;;;20.60;;
48006;SDS011;33771;48.180;11.400;2023-12-07T03:43:33;30.87;;;19.80;;
48006;SDS011;33771;48.180;11.400;2023-12-07T03:45:58;30.53;;;20.50;;
48006;SDS011;33771;48.180;11.400;2023-12-07T03:48:24;31.70;;;20.67;;
48006;SDS011;33771;48.180;11.400;2023-12-07T03:50:49;33.10;;;19.63;;
48006;SDS011;33771;48.180;11.400;2023-12-07T03:53:15;29.20;;;19.17;;
48006;SDS011;33771;48.180;11.400;2023-12-07T03:55:41;28.43;;;18.47;;
48006;SDS011;33771;48.180;11.400;2023-12-07T03:58:06;27.33;;;18.60;;
48006;SDS011;33771;48.180;11.400;2023-12-07T04:00:32;29.53;;;18.77;;
48006;SDS011;33771;48.180;11.400;2023-12-07T04:02:57;28.23;;;17.73;;
48006;SDS011;33771;48.180;11.400;2023-12-07T04:05:23;27.97;;;18.33;;
48006;SDS011;33771;48.180;11.400;2023-12-07T04:07:50;27.07;;;17.20;;
48006;SDS011;33771;48.180;11.400;2023-12-07T04:10:16;27.23;;;18.60;;
48006;SDS011;33771;48.180;11.400;2023-12-07T04:12:41;25.77;;;16.60;;
48006;SDS011;33771;48.180;11.400;2023-12-07T04:15:07;30.57;;;18.03;;
48006;SDS011;33771;48.180;11.400;2023-12-07T04:17:33;27.43;;;17.70;;
48006;SDS011;33771;48.180;11.400;2023-12-07T04:19:58;27.47;;;17.37;;
48006;SDS011;33771;48.180;11.400;2023-12-07T04:22:24;25.33;;;17.27;;
48006;SDS011;33771;48.180;11.400;2023-12-07T04:24:49;27.60;;;17.93;;
48006;SDS011;33771;48.180;11.400;2023-12-07T04:27:15;28.93;;;17.63;;
48006;SDS011;33771;48.180;11.400;2023-12-07T04:29:40;28.20;;;17.47;;
48006;SDS011;33771;48.180;11.400;2023-12-07T04:32:07;25.47;;;17.43;;
48006;SDS011;33771;48.180;11.400;2023-12-07T04:34:32;26.27;;;17.73;;
48006;SDS011;33771;48.180;11.400;2023-12-07T04:36:58;28.33;;;18.30;;
48006;SDS011;33771;48.180;11.400;2023-12-07T04:39:24;28.47;;;18.00;;
48006;SDS011;33771;48.180;11.400;2023-12-07T04:41:49;32.00;;;18.13;;
48006;SDS011;33771;48.180;11.400;2023-12-07T04:44:16;30.20;;;18.00;;
48006;SDS011;33771;48.180;11.400;2023-12-07T04:46:41;28.93;;;17.30;;
48006;SDS011;33771;48.180;11.400;2023-12-07T04:49:07;31.47;;;18.33;;
48006;SDS011;33771;48.180;11.400;2023-12-07T04:51:33;27.70;;;17.63;;
48006;SDS011;33771;48.180;11.400;2023-12-07T04:53:59;26.77;;;16.50;;
48006;SDS011;33771;48.180;11.400;2023-12-07T04:56:24;29.93;;;18.57;;
48006;SDS011;33771;48.180;11.400;2023-12-07T04:58:50;28.57;;;17.40;;
48006;SDS011;33771;48.180;11.400;2023-12-07T05:01:15;30.57;;;18.10;;
48006;SDS011;33771;48.180;11.400;2023-12-07T05:03:41;29.70;;;17.90;;
48006;SDS011;33771;48.180;11.400;2023-12-07T05:06:06;26.63;;;17.70;;
48006;SDS011;33771;48.180;11.400;2023-12-07T05:08:32;25.83;;;17.10;;
48006;SDS011;33771;48.180;11.400;2023-12-07T05:10:58;26.73;;;17.10;;
48006;SDS011;33771;48.180;11.400;2023-12-07T05:13:23;26.10;;;16.93;;
48006;SDS011;33771;48.180;11.400;2023-12-07T05:15:49;25.03;;;16.57;;
48006;SDS011;33771;48.180;11.400;2023-12-07T05:18:14;26.80;;;17.30;;
48006;SDS011;33771;48.180;11.400;2023-12-07T05:20:40;28.13;;;16.17;;
48006;SDS011;33771;48.180;11.400;2023-12-07T05:23:06;27.57;;;16.90;;
48006;SDS011;33771;48.180;11.400;2023-12-07T05:25:31;26.00;;;17.17;;
48006;SDS011;33771;48.180;11.400;2023-12-07T05:27:57;30.53;;;17.07;;
48006;SDS011;33771;48.180;11.400;2023-12-07T05:30:23;27.10;;;16.77;;
48006;SDS011;33771;48.180;11.400;2023-12-07T05:32:48;28.43;;;17.03;;
48006;SDS011;33771;48.180;11.400;2023-12-07T05:35:15;27.10;;;16.33;;
48006;SDS011;33771;48.180;11.400;2023-12-07T05:37:41;27.30;;;16.37;;
48006;SDS011;33771;48.180;11.400;2023-12-07T05:40:06;26.87;;;16.63;;
48006;SDS011;33771;48.180;11.400;2023-12-07T05:42:33;28.17;;;16.57;;
48006;SDS011;33771;48.180;11.400;2023-12-07T05:44:58;30.23;;;16.77;;
48006;SDS011;33771;48.180;11.400;2023-12-07T05:47:24;30.07;;;17.40;;
48006;SDS011;33771;48.180;11.400;2023-12-07T05:49:51;30.87;;;18.57;;
48006;SDS011;33771;48.180;11.400;2023-12-07T05:52:16;28.40;;;17.37;;
48006;SDS011;33771;48.180;11.400;2023-12-07T05:54:43;28.83;;;17.20;;
48006;SDS011;33771;48.180;11.400;2023-12-07T05:57:11;28.47;;;16.67;;
48006;SDS011;33771;48.180;11.400;2023-12-07T05:59:37;27.00;;;17.37;;
48006;SDS011;33771;48.180;11.400;2023-12-07T06:02:03;30.43;;;16.90;;
48006;SDS011;33771;48.180;11.400;2023-12-07T06:04:29;30.40;;;16.77;;
48006;SDS011;33771;48.180;11.400;2023-12-07T06:06:55;32.50;;;17.40;;
48006;SDS011;33771;48.180;11.400;2023-12-07T06:09:21;28.57;;;16.30;;
48006;SDS011;33771;48.180;11.400;2023-12-07T06:11:46;30.73;;;17.20;;
48006;SDS011;33771;48.180;11.400;2023-12-07T06:14:12;29.90;;;17.27;;
48006;SDS011;33771;48.180;11.400;2023-12-07T06:16:37;24.63;;;15.80;;
48006;SDS011;33771;48.180;11.400;2023-12-07T06:19:03;26.50;;;15.60;;
48006;SDS011;33771;48.180;11.400;2023-12-07T06:21:29;26.03;;;14.63;;
48006;SDS011;33771;48.180;11.400;2023-12-07T06:23:55;24.93;;;15.07;;
48006;SDS011;33771;48.180;11.400;2023-12-07T06:26:21;22.17;;;13.77;;
48006;SDS011;33771;48.180;11.400;2023-12-07T06:28:46;24.77;;;14.80;;
48006;SDS011;33771;48.180;11.400;2023-12-07T06:31:12;26.10;;;14.90;;
48006;SDS011;33771;48.180;11.400;2023-12-07T06:33:40;26.00;;;16.13;;
48006;SDS011;33771;48.180;11.400;2023-12-07T06:36:05;24.80;;;16.77;;
48006;SDS011;33771;48.180;11.400;2023-12-07T06:38:31;24.37;;;15.37;;
48006;SDS011;33771;48.180;11.400;2023-12-07T06:40:57;29.73;;;15.63;;
48006;SDS011;33771;48.180;11.400;2023-12-07T06:43:23;27.77;;;17.67;;
48006;SDS011;33771;48.180;11.400;2023-12-07T06:45:48;24.37;;;15.83;;
48006;SDS011;33771;48.180;11.400;2023-12-07T06:48:14;27.47;;;17.00;;
48006;SDS011;33771;48.180;11.400;2023-12-07T06:50:39;26.43;;;16.83;;
48006;SDS011;33771;48.180;11.400;2023-12-07T06:53:05;27.60;;;16.13;;
48006;SDS011;33771;48.180;11.400;2023-12-07T06:55:30;24.87;;;15.33;;
48006;SDS011;33771;48.180;11.400;2023-12-07T06:57:56;27.90;;;16.50;;
48006;SDS011;33771;48.180;11.400;2023-12-07T07:00:22;25.30;;;15.80;;
48006;SDS011;33771;48.180;11.400;2023-12-07T07:02:49;21.33;;;14.23;;
48006;SDS011;33771;48.180;11.400;2023-12-07T07:05:15;25.47;;;14.90;;
48006;SDS011;33771;48.180;11.400;2023-12-07T07:07:40;24.07;;;15.40;;
48006;SDS011;33771;48.180;11.400;2023-12-07T07:10:06;23.07;;;14.87;;
48006;SDS011;33771;48.180;11.400;2023-12-07T07:12:34;21.37;;;14.00;;
48006;SDS011;33771;48.180;11.400;2023-12-07T07:15:00;28.40;;;14.23;;
48006;SDS011;33771;48.180;11.400;2023-12-07T07:17:26;27.13;;;12.60;;
48006;SDS011;33771;48.180;11.400;2023-12-07T07:19:53;22.27;;;13.53;;
48006;SDS011;33771;48.180;11.400;2023-12-07T07:22:20;22.37;;;13.60;;
48006;SDS011;33771;48.180;11.400;2023-12-07T07:24:46;24.53;;;13.97;;
48006;SDS011;33771;48.180;11.400;2023-12-07T07:27:12;21.97;;;13.33;;
48006;SDS011;33771;48.180;11.400;2023-12-07T07:29:37;20.97;;;12.37;;
48006;SDS011;33771;48.180;11.400;2023-12-07T07:32:03;20.57;;;12.20;;
48006;SDS011;33771;48.180;11.400;2023-12-07T07:34:29;22.77;;;14.10;;
48006;SDS011;33771;48.180;11.400;2023-12-07T07:36:55;24.63;;;13.77;;
48006;SDS011;33771;48.180;11.400;2023-12-07T07:39:20;22.60;;;13.07;;
48006;SDS011;33771;48.180;11.400;2023-12-07T07:41:46;19.77;;;12.53;;
48006;SDS011;33771;48.180;11.400;2023-12-07T07:44:11;20.97;;;11.83;;
48006;SDS011;33771;48.180;11.400;2023-12-07T07:46:37;16.73;;;10.97;;
48006;SDS011;33771;48.180;11.400;2023-12-07T07:49:02;20.53;;;12.17;;
48006;SDS011;33771;48.180;11.400;2023-12-07T07:51:31;21.00;;;12.63;;
48006;SDS011;33771;48.180;11.400;2023-12-07T07:53:58;22.13;;;12.83;;
48006;SDS011;33771;48.180;11.400;2023-12-07T07:56:24;18.70;;;11.40;;
48006;SDS011;33771;48.180;11.400;2023-12-07T07:58:49;19.43;;;12.13;;
48006;SDS011;33771;48.180;11.400;2023-12-07T08:01:15;19.07;;;12.00;;
48006;SDS011;33771;48.180;11.400;2023-12-07T08:03:40;19.73;;;12.03;;
48006;SDS011;33771;48.180;11.400;2023-12-07T08:06:06;18.77;;;11.40;;
48006;SDS011;33771;48.180;11.400;2023-12-07T08:08:32;18.70;;;11.90;;
48006;SDS011;33771;48.180;11.400;2023-12-07T08:10:57;16.37;;;11.40;;
48006;SDS011;33771;48.180;11.400;2023-12-07T08:13:26;21.70;;;11.30;;
48006;SDS011;33771;48.180;11.400;2023-12-07T08:15:52;16.40;;;11.93;;
48006;SDS011;33771;48.180;11.400;2023-12-07T08:18:19;15.90;;;10.87;;
48006;SDS011;33771;48.180;11.400;2023-12-07T08:20:47;19.43;;;11.23;;
48006;SDS011;33771;48.180;11.400;2023-12-07T08:23:13;18.73;;;10.60;;
48006;SDS011;33771;48.180;11.400;2023-12-07T08:25:38;17.17;;;11.57;;
48006;SDS011;33771;48.180;11.400;2023-12-07T08:28:05;18.83;;;10.90;;
48006;SDS011;33771;48.180;11.400;2023-12-07T08:30:31;17.63;;;11.37;;
48006;SDS011;33771;48.180;11.400;2023-12-07T08:32:56;18.03;;;11.93;;
48006;SDS011;33771;48.180;11.400;2023-12-07T08:35:22;16.57;;;11.17;;
48006;SDS011;33771;48.180;11.400;2023-12-07T08:37:48;16.43;;;11.17;;
48006;SDS011;33771;48.180;11.400;2023-12-07T08:40:13;15.77;;;10.43;;
48006;SDS011;33771;48.180;11.400;2023-12-07T08:42:40;17.70;;;12.10;;
48006;SDS011;33771;48.180;11.400;2023-12-07T08:45:08;17.23;;;10.87;;
48006;SDS011;33771;48.180;11.400;2023-12-07T08:47:34;15.33;;;10.80;;
48006;SDS011;33771;48.180;11.400;2023-12-07T08:50:00;22.43;;;11.73;;
48006;SDS011;33771;48.180;11.400;2023-12-07T08:52:25;17.57;;;11.03;;
48006;SDS011;33771;48.180;11.400;2023-12-07T08:54:51;19.07;;;11.10;;
48006;SDS011;33771;48.180;11.400;2023-12-07T08:57:17;18.93;;;11.00;;
48006;SDS011;33771;48.180;11.400;2023-12-07T08:59:43;16.90;;;11.37;;
48006;SDS011;33771;48.180;11.400;2023-12-07T09:02:08;18.60;;;12.07;;
48006;SDS011;33771;48.180;11.400;2023-12-07T09:04:34;18.20;;;11.43;;
48006;SDS011;33771;48.180;11.400;2023-12-07T09:07:00;17.33;;;11.43;;
48006;SDS011;33771;48.180;11.400;2023-12-07T09:09:25;17.60;;;11.33;;
48006;SDS011;33771;48.180;11.400;2023-12-07T09:11:51;17.77;;;10.93;;
48006;SDS011;33771;48.180;11.400;2023-12-07T09:14:16;19.20;;;11.20;;
48006;SDS011;33771;48.180;11.400;2023-12-07T09:16:42;15.07;;;10.53;;
48006;SDS011;33771;48.180;11.400;2023-12-07T09:19:09;16.47;;;10.27;;
48006;SDS011;33771;48.180;11.400;2023-12-07T09:21:35;16.70;;;10.77;;
48006;SDS011;33771;48.180;11.400;2023-12-07T09:24:01;15.43;;;10.37;;
48006;SDS011;33771;48.180;11.400;2023-12-07T09:26:26;12.90;;;9.17;;
48006;SDS011;33771;48.180;11.400;2023-12-07T09:28:52;13.33;;;9.57;;
48006;SDS011;33771;48.180;11.400;2023-12-07T09:31:18;15.73;;;10.93;;
48006;SDS011;33771;48.180;11.400;2023-12-07T09:33:43;15.00;;;9.43;;
48006;SDS011;33771;48.180;11.400;2023-12-07T09:36:09;16.40;;;9.93;;
48006;SDS011;33771;48.180;11.400;2023-12-07T09:38:38;16.87;;;10.13;;
48006;SDS011;33771;48.180;11.400;2023-12-07T09:41:04;16.53;;;9.63;;
48006;SDS011;33771;48.180;11.400;2023-12-07T09:43:30;16.60;;;10.03;;
48006;SDS011;33771;48.180;11.400;2023-12-07T09:45:55;17.73;;;10.67;;
48006;SDS011;33771;48.180;11.400;2023-12-07T09:48:23;17.93;;;10.40;;
48006;SDS011;33771;48.180;11.400;2023-12-07T09:50:49;18.90;;;10.10;;
48006;SDS011;33771;48.180;11.400;2023-12-07T09:53:16;17.00;;;10.03;;
48006;SDS011;33771;48.180;11.400;2023-12-07T09:55:42;19.07;;;9.97;;
48006;SDS011;33771;48.180;11.400;2023-12-07T09:58:07;16.13;;;9.80;;
48006;SDS011;33771;48.180;11.400;2023-12-07T10:00:34;16.60;;;9.70;;
48006;SDS011;33771;48.180;11.400;2023-12-07T10:03:00;21.63;;;9.73;;
48006;SDS011;33771;48.180;11.400;2023-12-07T10:05:25;16.10;;;10.07;;
48006;SDS011;33771;48.180;11.400;2023-12-07T10:07:51;14.50;;;8.93;;
48006;SDS011;33771;48.180;11.400;2023-12-07T10:10:17;13.43;;;8.30;;
48006;SDS011;33771;48.180;11.400;2023-12-07T10:12:56;15.47;;;8.90;;
48006;SDS011;33771;48.180;11.400;2023-12-07T10:15:24;12.80;;;8.10;;
48006;SDS011;33771;48.180;11.400;2023-12-07T10:17:51;13.23;;;8.30;;
48006;SDS011;33771;48.180;11.400;2023-12-07T10:20:18;15.43;;;8.40;;
48006;SDS011;33771;48.180;11.400;2023-12-07T10:22:48;10.67;;;6.97;;
48006;SDS011;33771;48.180;11.400;2023-12-07T10:25:25;11.27;;;7.83;;
48006;SDS011;33771;48.180;11.400;2023-12-07T10:27:51;13.27;;;7.90;;
48006;SDS011;33771;48.180;11.400;2023-12-07T10:30:17;12.80;;;6.97;;
48006;SDS011;33771;48.180;11.400;2023-12-07T10:32:49;12.93;;;7.07;;
48006;SDS011;33771;48.180;11.400;2023-12-07T10:35:15;12.63;;;7.70;;
48006;SDS011;33771;48.180;11.400;2023-12-07T10:37:43;11.90;;;7.30;;
48006;SDS011;33771;48.180;11.400;2023-12-07T10:40:08;9.43;;;6.20;;
48006;SDS011;33771;48.180;11.400;2023-12-07T10:42:34;8.77;;;5.50;;
48006;SDS011;33771;48.180;11.400;2023-12-07T10:45:05;8.43;;;5.33;;
48006;SDS011;33771;48.180;11.400;2023-12-07T10:47:35;15.93;;;6.07;;
48006;SDS011;33771;48.180;11.400;2023-12-07T10:50:03;10.07;;;5.93;;
48006;SDS011;33771;48.180;11.400;2023-12-07T10:52:35;9.23;;;6.33;;
48006;SDS011;33771;48.180;11.400;2023-12-07T10:55:10;9.40;;;5.63;;
48006;SDS011;33771;48.180;11.400;2023-12-07T10:57:40;10.20;;;5.27;;
48006;SDS011;33771;48.180;11.400;2023-12-07T11:00:09;10.40;;;4.90;;
48006;SDS011;33771;48.180;11.400;2023-12-07T11:02:35;7.80;;;5.20;;
48006;SDS011;33771;48.180;11.400;2023-12-07T11:05:02;8.87;;;4.23;;
48006;SDS011;33771;48.180;11.400;2023-12-07T11:07:34;7.00;;;4.13;;
48006;SDS011;33771;48.180;11.400;2023-12-07T11:10:25;6.30;;;3.70;;
48006;SDS011;33771;48.180;11.400;2023-12-07T11:13:00;5.40;;;3.53;;
48006;SDS011;33771;48.180;11.400;2023-12-07T11:15:38;7.70;;;3.93;;
48006;SDS011;33771;48.180;11.400;2023-12-07T11:18:04;9.60;;;3.40;;
48006;SDS011;33771;48.180;11.400;2023-12-07T11:23:07;5.50;;;3.60;;
48006;SDS011;33771;48.180;11.400;2023-12-07T11:25:34;6.70;;;3.63;;
48006;SDS011;33771;48.180;11.400;2023-12-07T11:28:04;6.27;;;4.03;;
48006;SDS011;33771;48.180;11.400;2023-12-07T11:30:32;6.17;;;3.70;;
48006;SDS011;33771;48.180;11.400;2023-12-07T11:33:00;4.93;;;3.80;;
48006;SDS011;33771;48.180;11.400;2023-12-07T11:35:26;6.13;;;3.80;;
48006;SDS011;33771;48.180;11.400;2023-12-07T11:38:01;6.57;;;3.63;;
48006;SDS011;33771;48.180;11.400;2023-12-07T11:40:31;7.00;;;3.47;;
48006;SDS011;33771;48.180;11.400;2023-12-07T11:43:01;5.27;;;3.33;;
48006;SDS011;33771;48.180;11.400;2023-12-07T11:45:36;5.73;;;3.70;;
48006;SDS011;33771;48.180;11.400;2023-12-07T11:48:12;7.13;;;4.10;;
48006;SDS011;33771;48.180;11.400;2023-12-07T11:53:24;5.40;;;3.28;;
48006;SDS011;33771;48.180;11.400;2023-12-07T11:55:58;6.17;;;3.73;;
48006;SDS011;33771;48.180;11.400;2023-12-07T11:58:25;6.87;;;3.37;;
48006;SDS011;33771;48.180;11.400;2023-12-07T12:00:52;4.80;;;3.17;;
48006;SDS011;33771;48.180;11.400;2023-12-07T12:03:18;6.20;;;3.53;;
48006;SDS011;33771;48.180;11.400;2023-12-07T12:05:45;5.73;;;3.87;;
48006;SDS011;33771;48.180;11.400;2023-12-07T12:08:11;5.93;;;3.23;;
48006;SDS011;33771;48.180;11.400;2023-12-07T12:10:37;4.67;;;3.43;;
48006;SDS011;33771;48.180;11.400;2023-12-07T12:13:04;6.10;;;3.17;;
48006;SDS011;33771;48.180;11.400;2023-12-07T12:15:30;5.20;;;3.60;;
48006;SDS011;33771;48.180;11.400;2023-12-07T12:17:56;7.47;;;3.87;;
48006;SDS011;33771;48.180;11.400;2023-12-07T12:20:23;5.93;;;3.33;;
48006;SDS011;33771;48.180;11.400;2023-12-07T12:22:49;6.90;;;3.80;;
48006;SDS011;33771;48.180;11.400;2023-12-07T12:25:18;6.13;;;3.30;;
48006;SDS011;33771;48.180;11.400;2023-12-07T12:27:46;7.40;;;3.27;;
48006;SDS011;33771;48.180;11.400;2023-12-07T12:30:12;4.27;;;2.93;;
48006;SDS011;33771;48.180;11.400;2023-12-07T12:32:45;5.80;;;2.97;;
48006;SDS011;33771;48.180;11.400;2023-12-07T12:35:11;7.17;;;3.10;;
48006;SDS011;33771;48.180;11.400;2023-12-07T12:37:39;7.17;;;3.40;;
48006;SDS011;33771;48.180;11.400;2023-12-07T12:40:16;8.33;;;3.40;;
48006;SDS011;33771;48.180;11.400;2023-12-07T12:42:46;4.87;;;3.03;;
48006;SDS011;33771;48.180;11.400;2023-12-07T12:45:12;7.23;;;3.23;;
48006;SDS011;33771;48.180;11.400;2023-12-07T12:47:39;6.60;;;3.30;;
48006;SDS011;33771;48.180;11.400;2023-12-07T12:50:05;6.77;;;3.10;;
48006;SDS011;33771;48.180;11.400;2023-12-07T12:52:32;6.23;;;3.60;;
48006;SDS011;33771;48.180;11.400;2023-12-07T12:54:58;5.70;;;3.03;;
48006;SDS011;33771;48.180;11.400;2023-12-07T12:57:24;6.03;;;3.07;;
48006;SDS011;33771;48.180;11.400;2023-12-07T12:59:52;4.43;;;2.83;;
48006;SDS011;33771;48.180;11.400;2023-12-07T13:02:19;5.97;;;3.83;;
48006;SDS011;33771;48.180;11.400;2023-12-07T13:04:45;6.17;;;3.67;;
48006;SDS011;33771;48.180;11.400;2023-12-07T13:07:13;4.93;;;3.00;;
48006;SDS011;33771;48.180;11.400;2023-12-07T13:09:41;4.77;;;2.87;;
48006;SDS011;33771;48.180;11.400;2023-12-07T13:12:08;4.13;;;2.87;;
48006;SDS011;33771;48.180;11.400;2023-12-07T13:14:34;6.70;;;2.93;;
48006;SDS011;33771;48.180;11.400;2023-12-07T13:17:00;6.00;;;3.00;;
48006;SDS011;33771;48.180;11.400;2023-12-07T13:19:26;7.10;;;3.17;;
48006;SDS011;33771;48.180;11.400;2023-12-07T13:21:52;6.07;;;3.20;;
48006;SDS011;33771;48.180;11.400;2023-12-07T13:24:18;4.60;;;2.90;;
48006;SDS011;33771;48.180;11.400;2023-12-07T13:26:43;4.80;;;2.83;;
48006;SDS011;33771;48.180;11.400;2023-12-07T13:29:09;30.43;;;16.30;;
48006;SDS011;33771;48.180;11.400;2023-12-07T13:31:35;14.43;;;8.53;;
48006;SDS011;33771;48.180;11.400;2023-12-07T13:34:01;8.43;;;6.10;;
48006;SDS011;33771;48.180;11.400;2023-12-07T13:36:26;4.70;;;3.13;;
48006;SDS011;33771;48.180;11.400;2023-12-07T13:38:54;6.33;;;4.10;;
48006;SDS011;33771;48.180;11.400;2023-12-07T13:41:20;8.57;;;5.40;;
48006;SDS011;33771;48.180;11.400;2023-12-07T13:43:47;5.80;;;2.90;;
48006;SDS011;33771;48.180;11.400;2023-12-07T13:46:15;5.63;;;3.60;;
48006;SDS011;33771;48.180;11.400;2023-12-07T13:48:44;5.30;;;3.20;;
48006;SDS011;33771;48.180;11.400;2023-12-07T13:51:10;5.73;;;3.33;;
48006;SDS011;33771;48.180;11.400;2023-12-07T13:53:35;5.17;;;2.90;;
48006;SDS011;33771;48.180;11.400;2023-12-07T13:56:02;9.87;;;5.00;;
48006;SDS011;33771;48.180;11.400;2023-12-07T13:58:29;10.70;;;6.93;;
48006;SDS011;33771;48.180;11.400;2023-12-07T14:00:55;5.97;;;3.77;;
48006;SDS011;33771;48.180;11.400;2023-12-07T14:03:20;15.87;;;9.17;;
48006;SDS011;33771;48.180;11.400;2023-12-07T14:05:46;9.50;;;5.30;;
48006;SDS011;33771;48.180;11.400;2023-12-07T14:08:12;6.20;;;4.07;;
48006;SDS011;33771;48.180;11.400;2023-12-07T14:10:38;4.80;;;3.33;;
48006;SDS011;33771;48.180;11.400;2023-12-07T14:13:03;6.00;;;3.23;;
48006;SDS011;33771;48.180;11.400;2023-12-07T14:15:29;6.83;;;3.40;;
48006;SDS011;33771;48.180;11.400;2023-12-07T14:17:57;11.20;;;5.80;;